sensor_id;sensor_type;location;lat;lon;timestamp;temperature;humidity
27200;DHT22;14714;48.106;11.546;2023-06-04T00:02:18;11.80;99.90
27200;DHT22;14714;48.106;11.546;2023-06-04T00:04:45;11.80;99.90
27200;DHT22;14714;48.106;11.546;2023-06-04T00:07:12;11.80;99.90
27200;DHT22;14714;48.106;11.546;2023-06-04T00:09:39;11.70;99.90
27200;DHT22;14714;48.106;11.546;2023-06-04T00:12:06;11.70;99.90
27200;DHT22;14714;48.106;11.546;2023-06-04T00:14:33;11.70;99.90
27200;DHT22;14714;48.106;11.546;2023-06-04T00:17:00;11.70;99.90
27200;DHT22;14714;48.106;11.546;2023-06-04T00:19:27;11.70;99.90
27200;DHT22;14714;48.106;11.546;2023-06-04T00:21:54;11.70;99.90
27200;DHT22;14714;48.106;11.546;2023-06-04T00:24:21;11.70;99.90
27200;DHT22;14714;48.106;11.546;2023-06-04T00:26:48;11.70;99.90
27200;DHT22;14714;48.106;11.546;2023-06-04T00:29:14;11.60;99.90
27200;DHT22;14714;48.106;11.546;2023-06-04T00:31:41;11.60;99.90
27200;DHT22;14714;48.106;11.546;2023-06-04T00:34:10;11.60;99.90
27200;DHT22;14714;48.106;11.546;2023-06-04T00:36:37;11.60;99.90
27200;DHT22;14714;48.106;11.546;2023-06-04T00:39:04;11.60;99.90
27200;DHT22;14714;48.106;11.546;2023-06-04T00:41:30;11.50;99.90
27200;DHT22;14714;48.106;11.546;2023-06-04T00:43:57;11.50;99.90
27200;DHT22;14714;48.106;11.546;2023-06-04T00:46:25;11.40;99.90
27200;DHT22;14714;48.106;11.546;2023-06-04T00:48:54;11.40;99.90
27200;DHT22;14714;48.106;11.546;2023-06-04T00:51:21;11.40;99.90
27200;DHT22;14714;48.106;11.546;2023-06-04T00:53:49;11.40;99.90
27200;DHT22;14714;48.106;11.546;2023-06-04T00:56:17;11.30;99.90
27200;DHT22;14714;48.106;11.546;2023-06-04T00:58:44;11.30;99.90
27200;DHT22;14714;48.106;11.546;2023-06-04T01:03:53;11.30;99.90
27200;DHT22;14714;48.106;11.546;2023-06-04T01:06:41;11.30;99.90
27200;DHT22;14714;48.106;11.546;2023-06-04T01:09:10;11.20;99.90
27200;DHT22;14714;48.106;11.546;2023-06-04T01:11:38;11.20;99.90
27200;DHT22;14714;48.106;11.546;2023-06-04T01:14:07;11.30;99.90
27200;DHT22;14714;48.106;11.546;2023-06-04T01:16:45;11.20;99.90
27200;DHT22;14714;48.106;11.546;2023-06-04T01:22:56;11.20;99.90
27200;DHT22;14714;48.106;11.546;2023-06-04T01:25:05;11.20;99.90
27200;DHT22;14714;48.106;11.546;2023-06-04T01:27:31;11.10;99.90
27200;DHT22;14714;48.106;11.546;2023-06-04T01:29:59;11.10;99.90
27200;DHT22;14714;48.106;11.546;2023-06-04T01:32:27;11.00;99.90
27200;DHT22;14714;48.106;11.546;2023-06-04T01:34:54;11.00;99.90
27200;DHT22;14714;48.106;11.546;2023-06-04T01:37:21;10.90;99.90
27200;DHT22;14714;48.106;11.546;2023-06-04T01:39:48;10.90;99.90
27200;DHT22;14714;48.106;11.546;2023-06-04T01:42:15;10.90;99.90
27200;DHT22;14714;48.106;11.546;2023-06-04T01:44:42;10.90;99.90
27200;DHT22;14714;48.106;11.546;2023-06-04T01:47:09;10.80;99.90
27200;DHT22;14714;48.106;11.546;2023-06-04T01:49:35;10.80;99.90
27200;DHT22;14714;48.106;11.546;2023-06-04T01:52:04;10.80;99.90
27200;DHT22;14714;48.106;11.546;2023-06-04T01:54:32;10.70;99.90
27200;DHT22;14714;48.106;11.546;2023-06-04T01:57:00;10.60;99.90
27200;DHT22;14714;48.106;11.546;2023-06-04T01:59:27;10.60;99.90
27200;DHT22;14714;48.106;11.546;2023-06-04T02:01:54;10.60;99.90
27200;DHT22;14714;48.106;11.546;2023-06-04T02:04:21;10.60;99.90
27200;DHT22;14714;48.106;11.546;2023-06-04T02:06:48;10.50;99.90
27200;DHT22;14714;48.106;11.546;2023-06-04T02:09:15;10.50;99.90
27200;DHT22;14714;48.106;11.546;2023-06-04T02:11:42;10.50;99.90
27200;DHT22;14714;48.106;11.546;2023-06-04T02:14:09;10.40;99.90
27200;DHT22;14714;48.106;11.546;2023-06-04T02:16:36;10.40;99.90
27200;DHT22;14714;48.106;11.546;2023-06-04T02:19:04;10.30;99.90
27200;DHT22;14714;48.106;11.546;2023-06-04T02:21:31;10.30;99.90
27200;DHT22;14714;48.106;11.546;2023-06-04T02:23:58;10.20;99.90
27200;DHT22;14714;48.106;11.546;2023-06-04T02:26:25;10.20;99.90
27200;DHT22;14714;48.106;11.546;2023-06-04T02:28:52;10.20;99.90
27200;DHT22;14714;48.106;11.546;2023-06-04T02:31:18;10.20;99.90
27200;DHT22;14714;48.106;11.546;2023-06-04T02:33:46;10.20;99.90
27200;DHT22;14714;48.106;11.546;2023-06-04T02:36:12;10.10;99.90
27200;DHT22;14714;48.106;11.546;2023-06-04T02:38:39;10.10;99.90
27200;DHT22;14714;48.106;11.546;2023-06-04T02:41:06;10.10;99.90
27200;DHT22;14714;48.106;11.546;2023-06-04T02:43:33;10.00;99.90
27200;DHT22;14714;48.106;11.546;2023-06-04T02:46:00;10.00;99.90
27200;DHT22;14714;48.106;11.546;2023-06-04T02:48:27;10.00;99.90
27200;DHT22;14714;48.106;11.546;2023-06-04T02:50:54;10.00;99.90
27200;DHT22;14714;48.106;11.546;2023-06-04T02:53:21;10.00;99.90
27200;DHT22;14714;48.106;11.546;2023-06-04T02:55:50;10.00;99.90
27200;DHT22;14714;48.106;11.546;2023-06-04T02:58:19;9.90;99.90
27200;DHT22;14714;48.106;11.546;2023-06-04T03:00:48;9.90;99.90
27200;DHT22;14714;48.106;11.546;2023-06-04T03:03:15;9.80;99.90
27200;DHT22;14714;48.106;11.546;2023-06-04T03:05:41;9.80;99.90
27200;DHT22;14714;48.106;11.546;2023-06-04T03:08:09;9.80;99.90
27200;DHT22;14714;48.106;11.546;2023-06-04T03:10:36;9.80;99.90
27200;DHT22;14714;48.106;11.546;2023-06-04T03:13:04;9.70;99.90
27200;DHT22;14714;48.106;11.546;2023-06-04T03:15:30;9.70;99.90
27200;DHT22;14714;48.106;11.546;2023-06-04T03:17:57;9.70;99.90
27200;DHT22;14714;48.106;11.546;2023-06-04T03:20:24;9.70;99.90
27200;DHT22;14714;48.106;11.546;2023-06-04T03:22:51;9.70;99.90
27200;DHT22;14714;48.106;11.546;2023-06-04T03:25:18;9.70;99.90
27200;DHT22;14714;48.106;11.546;2023-06-04T03:27:45;9.60;99.90
27200;DHT22;14714;48.106;11.546;2023-06-04T03:30:12;9.60;99.90
27200;DHT22;14714;48.106;11.546;2023-06-04T03:32:39;9.60;99.90
27200;DHT22;14714;48.106;11.546;2023-06-04T03:35:06;9.60;99.90
27200;DHT22;14714;48.106;11.546;2023-06-04T03:37:33;9.60;99.90
27200;DHT22;14714;48.106;11.546;2023-06-04T03:40:00;9.70;99.90
27200;DHT22;14714;48.106;11.546;2023-06-04T03:42:27;9.70;99.90
27200;DHT22;14714;48.106;11.546;2023-06-04T03:44:53;9.70;99.90
27200;DHT22;14714;48.106;11.546;2023-06-04T03:47:20;9.80;99.90
27200;DHT22;14714;48.106;11.546;2023-06-04T03:49:47;9.80;99.90
27200;DHT22;14714;48.106;11.546;2023-06-04T03:52:14;9.80;99.90
27200;DHT22;14714;48.106;11.546;2023-06-04T03:54:41;9.80;99.90
27200;DHT22;14714;48.106;11.546;2023-06-04T03:57:08;9.90;99.90
27200;DHT22;14714;48.106;11.546;2023-06-04T03:59:35;9.90;99.90
27200;DHT22;14714;48.106;11.546;2023-06-04T04:02:01;10.00;99.90
27200;DHT22;14714;48.106;11.546;2023-06-04T04:04:28;10.50;99.90
27200;DHT22;14714;48.106;11.546;2023-06-04T04:06:55;11.10;99.90
27200;DHT22;14714;48.106;11.546;2023-06-04T04:09:22;11.90;99.90
27200;DHT22;14714;48.106;11.546;2023-06-04T04:11:49;12.70;99.90
27200;DHT22;14714;48.106;11.546;2023-06-04T04:14:15;13.50;99.90
27200;DHT22;14714;48.106;11.546;2023-06-04T04:16:42;14.40;99.90
27200;DHT22;14714;48.106;11.546;2023-06-04T04:19:09;15.30;99.90
27200;DHT22;14714;48.106;11.546;2023-06-04T04:21:38;16.20;99.90
27200;DHT22;14714;48.106;11.546;2023-06-04T04:24:05;17.10;99.90
27200;DHT22;14714;48.106;11.546;2023-06-04T04:26:32;17.90;99.90
27200;DHT22;14714;48.106;11.546;2023-06-04T04:28:59;18.70;99.90
27200;DHT22;14714;48.106;11.546;2023-06-04T04:31:27;19.40;99.90
27200;DHT22;14714;48.106;11.546;2023-06-04T04:33:55;20.20;99.90
27200;DHT22;14714;48.106;11.546;2023-06-04T04:36:22;20.90;99.90
27200;DHT22;14714;48.106;11.546;2023-06-04T04:38:50;21.60;96.80
27200;DHT22;14714;48.106;11.546;2023-06-04T04:41:21;22.20;93.80
27200;DHT22;14714;48.106;11.546;2023-06-04T04:43:49;22.80;90.90
27200;DHT22;14714;48.106;11.546;2023-06-04T04:46:16;23.40;86.40
27200;DHT22;14714;48.106;11.546;2023-06-04T04:48:43;24.00;80.30
27200;DHT22;14714;48.106;11.546;2023-06-04T04:51:10;24.70;76.20
27200;DHT22;14714;48.106;11.546;2023-06-04T04:53:37;25.20;71.10
27200;DHT22;14714;48.106;11.546;2023-06-04T04:56:04;25.80;65.70
27200;DHT22;14714;48.106;11.546;2023-06-04T04:58:33;26.30;63.00
27200;DHT22;14714;48.106;11.546;2023-06-04T05:01:00;26.80;60.10
27200;DHT22;14714;48.106;11.546;2023-06-04T05:03:27;27.30;58.30
27200;DHT22;14714;48.106;11.546;2023-06-04T05:05:53;27.80;56.20
27200;DHT22;14714;48.106;11.546;2023-06-04T05:08:20;28.40;53.20
27200;DHT22;14714;48.106;11.546;2023-06-04T05:10:47;28.90;51.00
27200;DHT22;14714;48.106;11.546;2023-06-04T05:13:14;29.40;49.00
27200;DHT22;14714;48.106;11.546;2023-06-04T05:15:42;29.90;47.40
27200;DHT22;14714;48.106;11.546;2023-06-04T05:18:09;30.40;45.60
27200;DHT22;14714;48.106;11.546;2023-06-04T05:20:35;30.90;44.60
27200;DHT22;14714;48.106;11.546;2023-06-04T05:23:04;31.40;43.50
27200;DHT22;14714;48.106;11.546;2023-06-04T05:25:31;31.80;41.50
27200;DHT22;14714;48.106;11.546;2023-06-04T05:27:58;32.20;39.20
27200;DHT22;14714;48.106;11.546;2023-06-04T05:30:25;32.70;37.60
27200;DHT22;14714;48.106;11.546;2023-06-04T05:32:52;32.90;36.70
27200;DHT22;14714;48.106;11.546;2023-06-04T05:35:20;33.10;35.20
27200;DHT22;14714;48.106;11.546;2023-06-04T05:37:47;33.30;35.00
27200;DHT22;14714;48.106;11.546;2023-06-04T05:40:20;33.50;33.10
27200;DHT22;14714;48.106;11.546;2023-06-04T05:42:48;33.70;32.50
27200;DHT22;14714;48.106;11.546;2023-06-04T05:45:15;34.00;31.40
27200;DHT22;14714;48.106;11.546;2023-06-04T05:47:42;34.20;31.60
27200;DHT22;14714;48.106;11.546;2023-06-04T05:50:09;34.40;31.00
27200;DHT22;14714;48.106;11.546;2023-06-04T05:52:36;34.40;30.40
27200;DHT22;14714;48.106;11.546;2023-06-04T05:55:04;34.60;30.30
27200;DHT22;14714;48.106;11.546;2023-06-04T05:57:34;34.90;30.00
27200;DHT22;14714;48.106;11.546;2023-06-04T06:00:01;35.00;30.20
27200;DHT22;14714;48.106;11.546;2023-06-04T06:02:28;35.30;29.40
27200;DHT22;14714;48.106;11.546;2023-06-04T06:04:55;35.70;29.20
27200;DHT22;14714;48.106;11.546;2023-06-04T06:07:22;36.00;28.80
27200;DHT22;14714;48.106;11.546;2023-06-04T06:09:49;36.30;29.30
27200;DHT22;14714;48.106;11.546;2023-06-04T06:12:16;36.50;28.20
27200;DHT22;14714;48.106;11.546;2023-06-04T06:14:43;36.30;28.10
27200;DHT22;14714;48.106;11.546;2023-06-04T06:17:10;36.20;27.90
27200;DHT22;14714;48.106;11.546;2023-06-04T06:19:36;36.00;28.20
27200;DHT22;14714;48.106;11.546;2023-06-04T06:22:04;35.70;28.90
27200;DHT22;14714;48.106;11.546;2023-06-04T06:24:31;36.00;28.40
27200;DHT22;14714;48.106;11.546;2023-06-04T06:26:58;36.40;28.40
27200;DHT22;14714;48.106;11.546;2023-06-04T06:29:25;37.00;28.10
27200;DHT22;14714;48.106;11.546;2023-06-04T06:31:52;37.50;27.20
27200;DHT22;14714;48.106;11.546;2023-06-04T06:34:19;37.50;27.10
27200;DHT22;14714;48.106;11.546;2023-06-04T06:36:45;37.70;27.40
27200;DHT22;14714;48.106;11.546;2023-06-04T06:39:13;38.00;26.80
27200;DHT22;14714;48.106;11.546;2023-06-04T06:41:40;38.30;26.70
27200;DHT22;14714;48.106;11.546;2023-06-04T06:44:07;38.50;26.10
27200;DHT22;14714;48.106;11.546;2023-06-04T06:46:33;38.70;25.60
27200;DHT22;14714;48.106;11.546;2023-06-04T06:49:00;38.80;25.80
27200;DHT22;14714;48.106;11.546;2023-06-04T06:51:27;38.70;25.80
27200;DHT22;14714;48.106;11.546;2023-06-04T06:53:54;38.50;25.40
27200;DHT22;14714;48.106;11.546;2023-06-04T06:56:21;38.50;25.60
27200;DHT22;14714;48.106;11.546;2023-06-04T06:58:48;38.50;25.60
27200;DHT22;14714;48.106;11.546;2023-06-04T07:01:15;38.50;25.50
27200;DHT22;14714;48.106;11.546;2023-06-04T07:03:42;38.70;25.30
27200;DHT22;14714;48.106;11.546;2023-06-04T07:06:09;39.00;25.40
27200;DHT22;14714;48.106;11.546;2023-06-04T07:08:36;39.10;25.10
27200;DHT22;14714;48.106;11.546;2023-06-04T07:11:03;39.30;25.20
27200;DHT22;14714;48.106;11.546;2023-06-04T07:13:30;39.20;25.20
27200;DHT22;14714;48.106;11.546;2023-06-04T07:16:02;38.90;25.30
27200;DHT22;14714;48.106;11.546;2023-06-04T07:18:29;38.60;25.30
27200;DHT22;14714;48.106;11.546;2023-06-04T07:20:56;38.20;25.40
27200;DHT22;14714;48.106;11.546;2023-06-04T07:23:30;38.20;25.70
27200;DHT22;14714;48.106;11.546;2023-06-04T07:25:57;38.70;25.70
27200;DHT22;14714;48.106;11.546;2023-06-04T07:28:24;39.20;25.10
27200;DHT22;14714;48.106;11.546;2023-06-04T07:30:50;39.50;24.70
27200;DHT22;14714;48.106;11.546;2023-06-04T07:33:17;39.30;25.00
27200;DHT22;14714;48.106;11.546;2023-06-04T07:35:44;39.00;24.80
27200;DHT22;14714;48.106;11.546;2023-06-04T07:38:11;38.70;25.10
27200;DHT22;14714;48.106;11.546;2023-06-04T07:40:38;38.70;25.20
27200;DHT22;14714;48.106;11.546;2023-06-04T07:43:04;38.80;25.30
27200;DHT22;14714;48.106;11.546;2023-06-04T07:45:31;38.70;25.30
27200;DHT22;14714;48.106;11.546;2023-06-04T07:48:01;38.90;25.20
27200;DHT22;14714;48.106;11.546;2023-06-04T07:50:28;39.20;24.60
27200;DHT22;14714;48.106;11.546;2023-06-04T07:52:56;39.10;25.00
27200;DHT22;14714;48.106;11.546;2023-06-04T07:55:23;38.90;25.20
27200;DHT22;14714;48.106;11.546;2023-06-04T07:57:50;38.90;25.50
27200;DHT22;14714;48.106;11.546;2023-06-04T08:00:17;39.00;25.40
27200;DHT22;14714;48.106;11.546;2023-06-04T08:02:45;39.00;25.40
27200;DHT22;14714;48.106;11.546;2023-06-04T08:05:12;38.80;25.50
27200;DHT22;14714;48.106;11.546;2023-06-04T08:07:42;38.80;25.20
27200;DHT22;14714;48.106;11.546;2023-06-04T08:10:10;38.70;25.40
27200;DHT22;14714;48.106;11.546;2023-06-04T08:12:37;39.10;25.70
27200;DHT22;14714;48.106;11.546;2023-06-04T08:15:04;39.30;25.50
27200;DHT22;14714;48.106;11.546;2023-06-04T08:17:31;39.60;25.20
27200;DHT22;14714;48.106;11.546;2023-06-04T08:19:58;39.10;25.00
27200;DHT22;14714;48.106;11.546;2023-06-04T08:22:25;38.50;26.10
27200;DHT22;14714;48.106;11.546;2023-06-04T08:24:51;38.50;25.80
27200;DHT22;14714;48.106;11.546;2023-06-04T08:27:18;38.40;26.10
27200;DHT22;14714;48.106;11.546;2023-06-04T08:29:45;38.20;25.80
27200;DHT22;14714;48.106;11.546;2023-06-04T08:32:12;38.00;25.70
27200;DHT22;14714;48.106;11.546;2023-06-04T08:34:39;37.50;26.20
27200;DHT22;14714;48.106;11.546;2023-06-04T08:37:06;37.20;27.20
27200;DHT22;14714;48.106;11.546;2023-06-04T08:39:33;37.40;26.50
27200;DHT22;14714;48.106;11.546;2023-06-04T08:42:03;37.60;26.20
27200;DHT22;14714;48.106;11.546;2023-06-04T08:44:30;37.90;25.90
27200;DHT22;14714;48.106;11.546;2023-06-04T08:47:03;38.00;26.00
27200;DHT22;14714;48.106;11.546;2023-06-04T08:49:40;37.80;25.70
27200;DHT22;14714;48.106;11.546;2023-06-04T08:52:07;37.00;26.60
27200;DHT22;14714;48.106;11.546;2023-06-04T08:54:34;36.60;26.70
27200;DHT22;14714;48.106;11.546;2023-06-04T08:57:01;36.40;26.70
27200;DHT22;14714;48.106;11.546;2023-06-04T08:59:29;36.60;26.50
27200;DHT22;14714;48.106;11.546;2023-06-04T09:01:56;36.60;26.70
27200;DHT22;14714;48.106;11.546;2023-06-04T09:04:23;37.00;28.60
27200;DHT22;14714;48.106;11.546;2023-06-04T09:06:51;37.70;26.80
27200;DHT22;14714;48.106;11.546;2023-06-04T09:09:19;37.90;26.40
27200;DHT22;14714;48.106;11.546;2023-06-04T09:11:55;37.40;26.30
27200;DHT22;14714;48.106;11.546;2023-06-04T09:14:23;36.90;27.00
27200;DHT22;14714;48.106;11.546;2023-06-04T09:16:51;36.80;27.10
27200;DHT22;14714;48.106;11.546;2023-06-04T09:19:19;37.00;27.50
27200;DHT22;14714;48.106;11.546;2023-06-04T09:24:21;37.30;26.80
27200;DHT22;14714;48.106;11.546;2023-06-04T09:26:49;37.00;26.60
27200;DHT22;14714;48.106;11.546;2023-06-04T09:29:18;36.40;27.30
27200;DHT22;14714;48.106;11.546;2023-06-04T09:32:07;35.90;27.50
27200;DHT22;14714;48.106;11.546;2023-06-04T09:34:33;35.70;27.80
27200;DHT22;14714;48.106;11.546;2023-06-04T09:37:00;35.40;27.80
27200;DHT22;14714;48.106;11.546;2023-06-04T09:39:26;34.90;28.70
27200;DHT22;14714;48.106;11.546;2023-06-04T09:42:01;34.90;28.80
27200;DHT22;14714;48.106;11.546;2023-06-04T09:44:31;34.50;29.40
27200;DHT22;14714;48.106;11.546;2023-06-04T09:46:58;34.20;30.30
27200;DHT22;14714;48.106;11.546;2023-06-04T09:49:25;34.10;29.00
27200;DHT22;14714;48.106;11.546;2023-06-04T09:51:52;33.80;29.20
27200;DHT22;14714;48.106;11.546;2023-06-04T09:54:19;33.40;29.90
27200;DHT22;14714;48.106;11.546;2023-06-04T09:56:46;33.50;30.50
27200;DHT22;14714;48.106;11.546;2023-06-04T09:59:13;33.50;29.90
27200;DHT22;14714;48.106;11.546;2023-06-04T10:01:40;33.70;29.60
27200;DHT22;14714;48.106;11.546;2023-06-04T10:04:13;33.60;29.80
27200;DHT22;14714;48.106;11.546;2023-06-04T10:06:41;33.10;30.40
27200;DHT22;14714;48.106;11.546;2023-06-04T10:09:08;32.50;31.20
27200;DHT22;14714;48.106;11.546;2023-06-04T10:11:49;32.20;31.40
27200;DHT22;14714;48.106;11.546;2023-06-04T10:14:25;32.20;30.60
27200;DHT22;14714;48.106;11.546;2023-06-04T10:16:53;31.80;30.90
27200;DHT22;14714;48.106;11.546;2023-06-04T10:19:23;31.30;31.10
27200;DHT22;14714;48.106;11.546;2023-06-04T10:21:50;30.90;32.40
27200;DHT22;14714;48.106;11.546;2023-06-04T10:24:19;30.10;33.40
27200;DHT22;14714;48.106;11.546;2023-06-04T10:26:47;29.40;35.20
27200;DHT22;14714;48.106;11.546;2023-06-04T10:29:14;29.50;35.10
27200;DHT22;14714;48.106;11.546;2023-06-04T10:31:42;29.60;35.00
27200;DHT22;14714;48.106;11.546;2023-06-04T10:34:11;29.60;34.80
27200;DHT22;14714;48.106;11.546;2023-06-04T10:36:46;29.10;35.60
27200;DHT22;14714;48.106;11.546;2023-06-04T10:39:13;28.50;37.00
27200;DHT22;14714;48.106;11.546;2023-06-04T10:41:40;28.50;37.50
27200;DHT22;14714;48.106;11.546;2023-06-04T10:44:07;28.70;36.30
27200;DHT22;14714;48.106;11.546;2023-06-04T10:46:39;29.00;36.00
27200;DHT22;14714;48.106;11.546;2023-06-04T10:49:10;29.40;36.30
27200;DHT22;14714;48.106;11.546;2023-06-04T10:51:38;29.70;35.90
27200;DHT22;14714;48.106;11.546;2023-06-04T10:54:05;29.70;35.30
27200;DHT22;14714;48.106;11.546;2023-06-04T10:56:34;29.70;35.20
27200;DHT22;14714;48.106;11.546;2023-06-04T10:59:15;29.90;34.80
27200;DHT22;14714;48.106;11.546;2023-06-04T11:01:42;29.90;33.80
27200;DHT22;14714;48.106;11.546;2023-06-04T11:04:23;29.00;34.70
27200;DHT22;14714;48.106;11.546;2023-06-04T11:09:31;27.50;37.70
27200;DHT22;14714;48.106;11.546;2023-06-04T11:12:00;27.60;38.00
27200;DHT22;14714;48.106;11.546;2023-06-04T11:14:27;27.50;38.10
27200;DHT22;14714;48.106;11.546;2023-06-04T11:16:54;27.50;38.50
27200;DHT22;14714;48.106;11.546;2023-06-04T11:19:21;27.50;38.50
27200;DHT22;14714;48.106;11.546;2023-06-04T11:21:48;27.40;37.60
27200;DHT22;14714;48.106;11.546;2023-06-04T11:24:16;26.90;39.20
27200;DHT22;14714;48.106;11.546;2023-06-04T11:26:44;26.70;40.10
27200;DHT22;14714;48.106;11.546;2023-06-04T11:29:26;27.00;39.80
27200;DHT22;14714;48.106;11.546;2023-06-04T11:31:53;27.40;39.00
27200;DHT22;14714;48.106;11.546;2023-06-04T11:34:27;27.70;37.30
27200;DHT22;14714;48.106;11.546;2023-06-04T11:36:55;27.50;39.70
27200;DHT22;14714;48.106;11.546;2023-06-04T11:39:22;27.20;39.60
27200;DHT22;14714;48.106;11.546;2023-06-04T11:41:50;27.00;39.20
27200;DHT22;14714;48.106;11.546;2023-06-04T11:44:19;26.60;39.80
27200;DHT22;14714;48.106;11.546;2023-06-04T11:46:46;26.10;40.40
27200;DHT22;14714;48.106;11.546;2023-06-04T11:49:16;25.70;41.40
27200;DHT22;14714;48.106;11.546;2023-06-04T11:51:50;25.80;42.90
27200;DHT22;14714;48.106;11.546;2023-06-04T11:54:19;26.00;41.10
27200;DHT22;14714;48.106;11.546;2023-06-04T11:56:48;26.10;41.00
27200;DHT22;14714;48.106;11.546;2023-06-04T11:59:17;26.20;40.60
27200;DHT22;14714;48.106;11.546;2023-06-04T12:01:45;26.10;41.30
27200;DHT22;14714;48.106;11.546;2023-06-04T12:04:14;26.00;41.10
27200;DHT22;14714;48.106;11.546;2023-06-04T12:07:01;26.10;41.10
27200;DHT22;14714;48.106;11.546;2023-06-04T12:09:32;26.30;40.40
27200;DHT22;14714;48.106;11.546;2023-06-04T12:12:02;26.50;40.50
27200;DHT22;14714;48.106;11.546;2023-06-04T12:14:32;26.50;40.40
27200;DHT22;14714;48.106;11.546;2023-06-04T12:17:07;26.60;40.50
27200;DHT22;14714;48.106;11.546;2023-06-04T12:19:49;26.60;40.30
27200;DHT22;14714;48.106;11.546;2023-06-04T12:22:16;26.60;39.20
27200;DHT22;14714;48.106;11.546;2023-06-04T12:24:48;26.60;39.90
27200;DHT22;14714;48.106;11.546;2023-06-04T12:27:15;26.50;39.80
27200;DHT22;14714;48.106;11.546;2023-06-04T12:29:42;26.20;40.60
27200;DHT22;14714;48.106;11.546;2023-06-04T12:32:20;26.10;40.20
27200;DHT22;14714;48.106;11.546;2023-06-04T12:34:47;25.80;40.90
27200;DHT22;14714;48.106;11.546;2023-06-04T12:37:14;25.90;40.40
27200;DHT22;14714;48.106;11.546;2023-06-04T12:39:41;25.90;40.60
27200;DHT22;14714;48.106;11.546;2023-06-04T12:42:09;26.00;40.40
27200;DHT22;14714;48.106;11.546;2023-06-04T12:44:39;25.90;40.50
27200;DHT22;14714;48.106;11.546;2023-06-04T12:47:07;25.80;40.50
27200;DHT22;14714;48.106;11.546;2023-06-04T12:49:34;25.70;41.40
27200;DHT22;14714;48.106;11.546;2023-06-04T12:52:01;25.50;41.20
27200;DHT22;14714;48.106;11.546;2023-06-04T12:54:28;25.40;40.30
27200;DHT22;14714;48.106;11.546;2023-06-04T12:56:55;25.30;40.50
27200;DHT22;14714;48.106;11.546;2023-06-04T12:59:26;25.20;40.80
27200;DHT22;14714;48.106;11.546;2023-06-04T13:01:56;25.10;40.70
27200;DHT22;14714;48.106;11.546;2023-06-04T13:04:23;24.90;41.30
27200;DHT22;14714;48.106;11.546;2023-06-04T13:06:51;24.90;41.60
27200;DHT22;14714;48.106;11.546;2023-06-04T13:09:25;24.80;41.80
27200;DHT22;14714;48.106;11.546;2023-06-04T13:11:54;24.90;42.00
27200;DHT22;14714;48.106;11.546;2023-06-04T13:14:21;25.00;42.20
27200;DHT22;14714;48.106;11.546;2023-06-04T13:16:48;25.00;42.20
27200;DHT22;14714;48.106;11.546;2023-06-04T13:19:18;25.20;41.30
27200;DHT22;14714;48.106;11.546;2023-06-04T13:21:47;25.20;40.30
27200;DHT22;14714;48.106;11.546;2023-06-04T13:24:14;25.20;40.40
27200;DHT22;14714;48.106;11.546;2023-06-04T13:26:41;25.10;41.20
27200;DHT22;14714;48.106;11.546;2023-06-04T13:29:08;25.00;40.30
27200;DHT22;14714;48.106;11.546;2023-06-04T13:31:36;24.90;40.20
27200;DHT22;14714;48.106;11.546;2023-06-04T13:34:04;24.90;40.80
27200;DHT22;14714;48.106;11.546;2023-06-04T13:36:51;24.80;39.40
27200;DHT22;14714;48.106;11.546;2023-06-04T13:39:18;24.80;40.30
27200;DHT22;14714;48.106;11.546;2023-06-04T13:41:44;24.80;39.30
27200;DHT22;14714;48.106;11.546;2023-06-04T13:44:11;24.60;39.50
27200;DHT22;14714;48.106;11.546;2023-06-04T13:46:38;24.50;40.10
27200;DHT22;14714;48.106;11.546;2023-06-04T13:49:05;24.30;40.80
27200;DHT22;14714;48.106;11.546;2023-06-04T13:51:32;24.20;40.30
27200;DHT22;14714;48.106;11.546;2023-06-04T13:53:59;24.10;41.60
27200;DHT22;14714;48.106;11.546;2023-06-04T13:56:25;24.10;40.20
27200;DHT22;14714;48.106;11.546;2023-06-04T13:58:52;24.00;40.80
27200;DHT22;14714;48.106;11.546;2023-06-04T14:01:19;24.00;41.30
27200;DHT22;14714;48.106;11.546;2023-06-04T14:03:46;23.90;41.60
27200;DHT22;14714;48.106;11.546;2023-06-04T14:06:13;24.10;41.20
27200;DHT22;14714;48.106;11.546;2023-06-04T14:08:40;24.30;40.90
27200;DHT22;14714;48.106;11.546;2023-06-04T14:11:07;24.60;40.80
27200;DHT22;14714;48.106;11.546;2023-06-04T14:13:34;24.90;39.40
27200;DHT22;14714;48.106;11.546;2023-06-04T14:16:01;25.30;39.40
27200;DHT22;14714;48.106;11.546;2023-06-04T14:18:28;25.50;39.50
27200;DHT22;14714;48.106;11.546;2023-06-04T14:20:55;25.50;38.70
27200;DHT22;14714;48.106;11.546;2023-06-04T14:23:21;25.30;39.10
27200;DHT22;14714;48.106;11.546;2023-06-04T14:25:48;25.10;39.60
27200;DHT22;14714;48.106;11.546;2023-06-04T14:28:15;25.00;39.90
27200;DHT22;14714;48.106;11.546;2023-06-04T14:30:42;24.90;38.60
27200;DHT22;14714;48.106;11.546;2023-06-04T14:33:09;24.70;39.20
27200;DHT22;14714;48.106;11.546;2023-06-04T14:35:36;24.60;40.40
27200;DHT22;14714;48.106;11.546;2023-06-04T14:38:03;24.50;40.30
27200;DHT22;14714;48.106;11.546;2023-06-04T14:40:30;24.40;41.00
27200;DHT22;14714;48.106;11.546;2023-06-04T14:42:56;24.40;41.50
27200;DHT22;14714;48.106;11.546;2023-06-04T14:45:24;24.30;42.10
27200;DHT22;14714;48.106;11.546;2023-06-04T14:47:50;24.20;41.20
27200;DHT22;14714;48.106;11.546;2023-06-04T14:50:38;24.00;42.10
27200;DHT22;14714;48.106;11.546;2023-06-04T14:53:04;23.90;42.40
27200;DHT22;14714;48.106;11.546;2023-06-04T14:55:35;23.80;42.40
27200;DHT22;14714;48.106;11.546;2023-06-04T14:58:02;23.80;42.70
27200;DHT22;14714;48.106;11.546;2023-06-04T15:00:32;23.80;42.20
27200;DHT22;14714;48.106;11.546;2023-06-04T15:02:59;23.90;42.80
27200;DHT22;14714;48.106;11.546;2023-06-04T15:05:26;24.00;43.00
27200;DHT22;14714;48.106;11.546;2023-06-04T15:07:53;23.90;42.50
27200;DHT22;14714;48.106;11.546;2023-06-04T15:10:20;23.90;43.00
27200;DHT22;14714;48.106;11.546;2023-06-04T15:12:47;23.80;42.80
27200;DHT22;14714;48.106;11.546;2023-06-04T15:15:14;23.70;44.00
27200;DHT22;14714;48.106;11.546;2023-06-04T15:17:41;23.70;44.00
27200;DHT22;14714;48.106;11.546;2023-06-04T15:20:09;23.70;43.70
27200;DHT22;14714;48.106;11.546;2023-06-04T15:22:37;23.60;43.80
27200;DHT22;14714;48.106;11.546;2023-06-04T15:25:04;23.60;44.00
27200;DHT22;14714;48.106;11.546;2023-06-04T15:27:30;23.60;44.30
27200;DHT22;14714;48.106;11.546;2023-06-04T15:29:57;23.70;43.80
27200;DHT22;14714;48.106;11.546;2023-06-04T15:32:24;23.80;43.20
27200;DHT22;14714;48.106;11.546;2023-06-04T15:34:51;23.80;43.70